Time;durP1;ratioP1;P1;durP2;ratioP2;P2;SDS_P1;SDS_P2;PMS_P1;PMS_P2;Temp;Humidity;BMP_temperature;BMP_pressure;BME280_temperature;BME280_humidity;BME280_pressure;Samples;Min_cycle;Max_cycle;Signal;HPM_P1;HPM_P2
2023/03/31 00:02:20;;;;;;;2.10;1.20;;;15.30;34.00;;;;;;5007361;28;20535;-67
2023/03/31 00:04:51;;;;;;;2.10;1.30;;;15.60;32.60;;;;;;4997101;28;20207;-67
2023/03/31 00:07:20;;;;;;;2.03;1.20;;;16.00;31.70;;;;;;5011450;28;20443;-69
2023/03/31 00:09:47;;;;;;;2.10;1.30;;;15.90;31.60;;;;;;5011485;28;20816;-67
2023/03/31 00:12:19;;;;;;;2.10;1.20;;;15.60;32.80;;;;;;5010266;28;20436;-67
2023/03/31 00:14:44;;;;;;;2.10;1.40;;;14.70;34.20;;;;;;4985071;28;20518;-68
2023/03/31 00:17:10;;;;;;;2.10;1.30;;;14.90;33.90;;;;;;5011309;28;20557;-66
2023/03/31 00:19:36;;;;;;;1.90;1.10;;;14.60;34.90;;;;;;5011595;28;20672;-67
2023/03/31 00:22:04;;;;;;;2.10;1.30;;;14.60;35.40;;;;;;5011112;28;20194;-68
2023/03/31 00:24:31;;;;;;;2.00;1.20;;;15.00;34.40;;;;;;5009798;28;20188;-67
2023/03/31 00:26:58;;;;;;;2.20;1.40;;;15.20;34.30;;;;;;5018939;28;20499;-68
2023/03/31 00:29:24;;;;;;;2.00;1.17;;;15.10;35.00;;;;;;5019510;28;20506;-67
2023/03/31 00:31:50;;;;;;;1.97;1.20;;;15.30;34.10;;;;;;5017784;28;20411;-66
2023/03/31 00:34:15;;;;;;;2.07;1.27;;;15.30;34.20;;;;;;5016719;28;20462;-67
2023/03/31 00:36:46;;;;;;;2.10;1.30;;;15.40;33.90;;;;;;5004102;28;20224;-66
2023/03/31 00:39:13;;;;;;;2.20;1.40;;;15.50;33.40;;;;;;5019272;28;20183;-68
2023/03/31 00:41:39;;;;;;;2.00;1.20;;;15.60;33.40;;;;;;5013837;28;20446;-66
2023/03/31 00:44:11;;;;;;;1.97;1.20;;;15.50;34.20;;;;;;5011173;28;20448;-67
2023/03/31 00:46:52;;;;;;;2.00;1.20;;;15.30;34.70;;;;;;5008945;28;20200;-67
2023/03/31 00:49:29;;;;;;;1.90;1.10;;;15.30;33.90;;;;;;5016613;28;20621;-66
2023/03/31 00:52:02;;;;;;;2.10;1.30;;;15.20;34.80;;;;;;5017479;28;20412;-68
2023/03/31 00:54:29;;;;;;;2.00;1.20;;;15.00;34.70;;;;;;5013710;28;20426;-66
2023/03/31 00:56:57;;;;;;;1.90;1.20;;;14.90;35.60;;;;;;4988962;28;20994;-68
2023/03/31 00:59:28;;;;;;;2.00;1.30;;;15.20;34.80;;;;;;5012236;28;20966;-68
2023/03/31 01:01:58;;;;;;;1.90;1.17;;;15.40;33.40;;;;;;5014909;28;20400;-68
2023/03/31 01:04:24;;;;;;;2.10;1.30;;;15.70;32.50;;;;;;5014538;28;20451;-68
2023/03/31 01:07:02;;;;;;;2.00;1.20;;;15.80;32.60;;;;;;5012938;28;20455;-68
2023/03/31 01:09:33;;;;;;;1.90;1.20;;;15.70;33.00;;;;;;5012295;28;20558;-68
2023/03/31 01:12:02;;;;;;;1.90;1.17;;;15.50;34.10;;;;;;5001186;28;20436;-67
2023/03/31 01:14:29;;;;;;;2.00;1.20;;;15.10;34.50;;;;;;5014431;28;20419;-67
2023/03/31 01:16:55;;;;;;;2.20;1.40;;;14.50;35.60;;;;;;5012725;28;20939;-67
2023/03/31 01:20:00;;;;;;;1.90;1.20;;;14.90;34.30;;;;;;5013761;28;20480;-67
2023/03/31 01:22:44;;;;;;;2.10;1.40;;;15.10;32.20;;;;;;4963969;28;20200;-67
2023/03/31 01:25:38;;;;;;;2.10;1.30;;;14.80;34.50;;;;;;5017161;28;20408;-68
2023/03/31 01:28:45;;;;;;;2.43;1.43;;;15.20;33.80;;;;;;5009169;28;20461;-67
2023/03/31 01:31:54;;;;;;;1.90;1.20;;;15.10;34.80;;;;;;4971688;28;20830;-67
2023/03/31 01:34:35;;;;;;;1.90;1.20;;;15.10;31.50;;;;;;4999182;28;20460;-68
2023/03/31 01:37:28;;;;;;;2.00;1.30;;;15.60;30.80;;;;;;5012610;28;20450;-68
2023/03/31 01:40:29;;;;;;;2.10;1.30;;;15.90;29.90;;;;;;5009805;28;20537;-68
2023/03/31 01:43:07;;;;;;;2.10;1.30;;;16.20;28.90;;;;;;4939691;29;20427;-68
2023/03/31 01:46:15;;;;;;;2.00;1.30;;;15.80;29.20;;;;;;4948400;29;20442;-68
2023/03/31 01:48:53;;;;;;;2.50;1.50;;;15.20;30.20;;;;;;4930082;29;20955;-68
2023/03/31 01:51:43;;;;;;;2.03;1.30;;;14.80;30.50;;;;;;4940597;29;20443;-67
2023/03/31 01:54:24;;;;;;;3.80;1.40;;;14.60;31.10;;;;;;4945025;29;20437;-68
2023/03/31 01:57:13;;;;;;;2.10;1.30;;;14.80;31.80;;;;;;4933779;29;20440;-67
2023/03/31 01:59:48;;;;;;;2.13;1.30;;;14.50;32.80;;;;;;4937027;29;20444;-68
2023/03/31 02:02:24;;;;;;;2.10;1.30;;;14.80;32.90;;;;;;4933059;29;20437;-67
2023/03/31 02:04:57;;;;;;;2.03;1.20;;;15.30;32.50;;;;;;4947392;29;20446;-67
2023/03/31 02:07:30;;;;;;;2.00;1.20;;;15.40;31.70;;;;;;4933924;29;20451;-68
2023/03/31 02:10:00;;;;;;;2.00;1.20;;;14.80;32.80;;;;;;4941420;29;20479;-67
2023/03/31 02:12:29;;;;;;;2.37;1.40;;;14.40;35.40;;;;;;4936374;29;20488;-68
2023/03/31 02:14:57;;;;;;;2.00;1.23;;;14.50;35.40;;;;;;4945901;29;20439;-68
2023/03/31 02:17:32;;;;;;;2.10;1.30;;;14.70;35.50;;;;;;4950338;29;20458;-67
2023/03/31 02:20:05;;;;;;;2.50;1.60;;;14.50;36.80;;;;;;4996350;28;20442;-68
2023/03/31 02:22:36;;;;;;;2.10;1.20;;;14.00;38.90;;;;;;5007895;28;20464;-68
2023/03/31 02:25:05;;;;;;;2.00;1.30;;;13.80;42.10;;;;;;5012222;28;20448;-68
2023/03/31 02:27:37;;;;;;;2.00;1.20;;;13.60;42.10;;;;;;5012396;28;20449;-67
2023/03/31 02:30:04;;;;;;;2.13;1.40;;;14.00;42.10;;;;;;4998454;28;20519;-67
2023/03/31 02:32:43;;;;;;;2.20;1.40;;;14.10;43.60;;;;;;5009866;28;20991;-68
2023/03/31 02:35:14;;;;;;;2.00;1.20;;;14.50;42.50;;;;;;5008694;28;20410;-67
2023/03/31 02:37:41;;;;;;;2.00;1.23;;;14.80;43.80;;;;;;5012789;28;20497;-68
2023/03/31 02:40:17;;;;;;;1.87;1.10;;;14.80;44.30;;;;;;5013238;28;20422;-68
2023/03/31 02:42:43;;;;;;;2.53;1.63;;;14.90;44.90;;;;;;5009947;28;20438;-68
2023/03/31 02:45:36;;;;;;;2.00;1.20;;;14.80;45.00;;;;;;5012003;28;20445;-67
2023/03/31 02:48:03;;;;;;;2.50;1.33;;;15.00;43.60;;;;;;4997297;28;20258;-67
2023/03/31 02:50:36;;;;;;;1.90;1.20;;;14.90;43.90;;;;;;5011917;28;20871;-66
2023/03/31 02:53:40;;;;;;;2.00;1.20;;;14.80;45.00;;;;;;5011316;28;20530;-67
2023/03/31 02:56:18;;;;;;;7.30;1.57;;;14.70;45.90;;;;;;5007966;28;20426;-67
2023/03/31 02:58:56;;;;;;;2.10;1.60;;;14.60;46.50;;;;;;5006283;28;20437;-67
2023/03/31 03:01:47;;;;;;;2.37;1.47;;;15.00;45.20;;;;;;5012645;28;20439;-67
2023/03/31 03:04:48;;;;;;;2.00;1.23;;;15.20;43.90;;;;;;4984133;28;20469;-67
2023/03/31 03:07:32;;;;;;;2.00;1.30;;;15.20;43.60;;;;;;4973557;28;20474;-69
2023/03/31 03:10:19;;;;;;;2.10;1.40;;;15.20;44.10;;;;;;5006400;28;20457;-67
2023/03/31 03:13:08;;;;;;;2.00;1.20;;;15.30;43.30;;;;;;5010209;28;20426;-67
2023/03/31 03:15:43;;;;;;;2.00;1.30;;;15.30;42.80;;;;;;5012214;28;20487;-67
2023/03/31 03:18:09;;;;;;;2.00;1.30;;;15.40;42.70;;;;;;5007929;28;20444;-66
2023/03/31 03:20:34;;;;;;;1.90;1.10;;;15.30;42.60;;;;;;5012321;28;20415;-67
2023/03/31 03:23:01;;;;;;;2.30;1.50;;;14.70;43.90;;;;;;5007502;28;20799;-67
2023/03/31 03:25:29;;;;;;;2.00;1.27;;;14.40;45.30;;;;;;5010242;28;20266;-67
2023/03/31 03:27:55;;;;;;;2.07;1.30;;;14.40;46.00;;;;;;5011878;28;20791;-67
2023/03/31 03:30:21;;;;;;;2.10;1.33;;;14.60;45.20;;;;;;5011941;28;20546;-66
2023/03/31 03:32:46;;;;;;;2.00;1.20;;;14.60;45.10;;;;;;5007429;28;20584;-67
2023/03/31 03:35:12;;;;;;;2.10;1.30;;;14.60;45.60;;;;;;5007948;28;21035;-67
2023/03/31 03:37:38;;;;;;;1.93;1.10;;;14.60;45.40;;;;;;5010180;28;20214;-67
2023/03/31 03:40:07;;;;;;;1.90;1.20;;;14.50;44.90;;;;;;5011782;28;20669;-67
2023/03/31 03:42:34;;;;;;;2.10;1.30;;;14.40;45.00;;;;;;5008656;28;20236;-68
2023/03/31 03:45:00;;;;;;;2.00;1.30;;;14.50;44.30;;;;;;5003861;28;20438;-67
2023/03/31 03:47:27;;;;;;;2.00;1.20;;;14.20;44.90;;;;;;5011561;28;20441;-66
2023/03/31 03:49:52;;;;;;;1.97;1.10;;;13.90;44.60;;;;;;5011597;28;20457;-67
2023/03/31 03:52:19;;;;;;;1.90;1.20;;;13.70;44.60;;;;;;5010378;28;20788;-67
2023/03/31 03:54:44;;;;;;;2.23;1.50;;;13.70;45.60;;;;;;5006695;28;20178;-67
2023/03/31 03:57:10;;;;;;;2.87;1.43;;;13.80;44.90;;;;;;5010480;28;20849;-67
2023/03/31 03:59:35;;;;;;;2.17;1.43;;;13.80;44.70;;;;;;5011309;28;20261;-67
2023/03/31 04:02:01;;;;;;;2.00;1.20;;;13.50;44.60;;;;;;5010477;28;20552;-67
2023/03/31 04:04:27;;;;;;;2.00;1.20;;;13.50;43.40;;;;;;5010282;28;20555;-66
2023/03/31 04:06:52;;;;;;;2.40;1.47;;;13.60;43.80;;;;;;5010830;28;20220;-67
2023/03/31 04:09:18;;;;;;;2.00;1.20;;;13.90;43.60;;;;;;4993655;28;20197;-67
2023/03/31 04:11:44;;;;;;;1.97;1.17;;;14.10;42.60;;;;;;5010312;28;20196;-67
2023/03/31 04:14:09;;;;;;;1.90;1.10;;;13.70;43.20;;;;;;5009175;28;20188;-67
2023/03/31 04:16:35;;;;;;;1.90;1.00;;;13.30;44.90;;;;;;5003538;28;20201;-66
2023/03/31 04:19:03;;;;;;;1.90;1.20;;;13.20;45.10;;;;;;5011522;28;20166;-66
2023/03/31 04:21:33;;;;;;;2.07;1.30;;;13.20;45.70;;;;;;5010698;28;20185;-66
2023/03/31 04:24:03;;;;;;;2.00;1.30;;;13.30;45.60;;;;;;5011688;28;20425;-66
2023/03/31 04:26:42;;;;;;;2.10;1.40;;;13.30;45.10;;;;;;5012782;28;20447;-67
2023/03/31 04:29:13;;;;;;;2.67;1.73;;;13.20;46.90;;;;;;4997432;28;20460;-67
2023/03/31 04:31:41;;;;;;;1.90;1.10;;;13.50;45.10;;;;;;5015459;28;20415;-67
2023/03/31 04:34:14;;;;;;;1.90;1.20;;;13.60;43.90;;;;;;5013769;28;20524;-67
2023/03/31 04:36:47;;;;;;;1.90;1.20;;;13.80;43.10;;;;;;5013780;28;20842;-67
2023/03/31 04:39:23;;;;;;;1.90;1.20;;;13.90;44.10;;;;;;5011212;28;20492;-66
2023/03/31 04:41:48;;;;;;;1.90;1.20;;;13.60;45.00;;;;;;4978041;28;20421;-67
2023/03/31 04:44:14;;;;;;;1.90;1.20;;;13.50;45.80;;;;;;5004610;28;20832;-68
2023/03/31 04:46:40;;;;;;;1.90;1.30;;;13.50;45.20;;;;;;5010159;28;20252;-66
2023/03/31 04:49:05;;;;;;;1.80;1.20;;;13.40;44.80;;;;;;4988941;28;20205;-66
2023/03/31 04:51:31;;;;;;;1.90;1.20;;;13.30;44.80;;;;;;5015831;28;20175;-66
2023/03/31 04:53:57;;;;;;;2.10;1.37;;;13.30;44.50;;;;;;5017988;28;20273;-69
2023/03/31 04:56:22;;;;;;;1.80;1.20;;;13.40;45.10;;;;;;5016732;28;20180;-68
2023/03/31 04:58:48;;;;;;;1.90;1.20;;;13.50;44.80;;;;;;5010096;28;20173;-67
2023/03/31 05:01:16;;;;;;;1.90;1.20;;;13.70;44.60;;;;;;5015535;28;20309;-67
2023/03/31 05:03:43;;;;;;;2.00;1.30;;;13.90;42.90;;;;;;5017290;28;20175;-66
2023/03/31 05:06:08;;;;;;;3.27;1.80;;;13.90;41.60;;;;;;5016677;28;20456;-68
2023/03/31 05:08:34;;;;;;;1.97;1.30;;;13.80;43.30;;;;;;5014135;28;20544;-67
2023/03/31 05:11:02;;;;;;;1.80;1.20;;;13.80;42.60;;;;;;5008269;28;20203;-67
2023/03/31 05:13:27;;;;;;;2.00;1.30;;;14.00;43.90;;;;;;5014343;28;20186;-66
2023/03/31 05:15:53;;;;;;;2.60;1.93;;;14.00;44.30;;;;;;5012845;28;20789;-68
2023/03/31 05:18:18;;;;;;;2.83;1.90;;;14.10;45.20;;;;;;5005052;28;20204;-67
2023/03/31 05:20:44;;;;;;;1.90;1.30;;;14.10;46.20;;;;;;5003195;28;20192;-66
2023/03/31 05:23:10;;;;;;;1.80;1.17;;;14.00;47.70;;;;;;5013836;28;20673;-67
2023/03/31 05:25:35;;;;;;;2.50;1.40;;;13.40;48.50;;;;;;5003469;28;20276;-67
2023/03/31 05:28:01;;;;;;;2.00;1.30;;;13.30;51.60;;;;;;5014094;28;20204;-67
2023/03/31 05:30:28;;;;;;;1.90;1.20;;;13.40;51.70;;;;;;5007094;28;20459;-66
2023/03/31 05:32:54;;;;;;;1.80;1.20;;;13.80;53.80;;;;;;5013898;28;20247;-66
2023/03/31 05:35:21;;;;;;;2.03;1.37;;;13.90;50.40;;;;;;5013286;28;20441;-66
2023/03/31 05:37:47;;;;;;;1.90;1.30;;;14.20;48.80;;;;;;5013276;28;20527;-68
2023/03/31 05:40:12;;;;;;;1.90;1.30;;;14.40;50.80;;;;;;5012269;28;20191;-67
2023/03/31 05:42:38;;;;;;;2.10;1.40;;;14.30;49.30;;;;;;5007415;28;20650;-67
2023/03/31 05:45:04;;;;;;;1.90;1.30;;;14.60;50.00;;;;;;5014054;28;20192;-69
2023/03/31 05:47:31;;;;;;;1.90;1.30;;;14.90;46.70;;;;;;5013492;28;20215;-67
2023/03/31 05:49:57;;;;;;;2.40;1.70;;;14.60;49.10;;;;;;5012199;28;20999;-67
2023/03/31 05:52:23;;;;;;;1.87;1.20;;;14.40;49.70;;;;;;4987764;28;20446;-67
2023/03/31 05:54:48;;;;;;;1.80;1.20;;;14.40;50.10;;;;;;5013538;28;20975;-67
2023/03/31 05:57:14;;;;;;;1.80;1.20;;;14.40;50.90;;;;;;5013695;28;20198;-68
2023/03/31 05:59:41;;;;;;;1.90;1.30;;;14.40;52.50;;;;;;5013532;28;20213;-67
2023/03/31 06:02:07;;;;;;;1.80;1.20;;;14.40;52.70;;;;;;5011089;28;20291;-67
2023/03/31 06:04:33;;;;;;;2.10;1.40;;;14.50;52.50;;;;;;5013309;28;20908;-67
2023/03/31 06:06:58;;;;;;;1.93;1.30;;;14.60;50.90;;;;;;5013797;28;20431;-67
2023/03/31 06:09:25;;;;;;;2.10;1.30;;;14.30;51.60;;;;;;5014034;28;20212;-67
2023/03/31 06:11:50;;;;;;;2.23;1.43;;;14.20;53.20;;;;;;5011119;28;20180;-67
2023/03/31 06:14:16;;;;;;;1.80;1.20;;;14.30;53.80;;;;;;4994103;28;20806;-67
2023/03/31 06:16:42;;;;;;;1.90;1.20;;;14.40;52.70;;;;;;5012910;28;20838;-67
2023/03/31 06:19:08;;;;;;;2.10;1.40;;;14.60;50.90;;;;;;5012455;28;20449;-66
2023/03/31 06:21:34;;;;;;;2.13;1.50;;;14.80;50.40;;;;;;5014340;28;20189;-66
2023/03/31 06:24:00;;;;;;;2.10;1.47;;;15.00;48.40;;;;;;5002904;28;20214;-66
2023/03/31 06:26:26;;;;;;;2.00;1.40;;;15.00;48.20;;;;;;5014037;28;20474;-67
2023/03/31 06:28:52;;;;;;;1.80;1.20;;;14.90;49.20;;;;;;5007279;28;21006;-68
2023/03/31 06:31:20;;;;;;;2.00;1.30;;;15.20;48.90;;;;;;5013435;28;20785;-67
2023/03/31 06:33:46;;;;;;;1.80;1.20;;;15.10;49.90;;;;;;4995406;28;20424;-67
2023/03/31 06:36:14;;;;;;;1.80;1.20;;;15.10;50.50;;;;;;5010899;28;20514;-67
2023/03/31 06:38:40;;;;;;;2.10;1.40;;;15.10;50.70;;;;;;5012038;28;21054;-67
2023/03/31 06:41:07;;;;;;;2.20;1.47;;;15.20;50.50;;;;;;5012927;28;20403;-67
2023/03/31 06:43:32;;;;;;;2.63;1.30;;;15.30;49.10;;;;;;5012810;28;20914;-67
2023/03/31 06:45:58;;;;;;;1.90;1.30;;;15.40;47.90;;;;;;5011639;28;20468;-66
2023/03/31 06:48:25;;;;;;;1.80;1.10;;;15.50;48.60;;;;;;5012186;28;20292;-67
2023/03/31 06:50:52;;;;;;;1.90;1.30;;;15.30;51.20;;;;;;5013009;28;20219;-68
2023/03/31 06:53:18;;;;;;;1.90;1.40;;;14.30;54.00;;;;;;5011819;28;20923;-74
2023/03/31 06:55:43;;;;;;;2.23;1.60;;;13.20;67.00;;;;;;5010889;28;20445;-73
2023/03/31 06:58:10;;;;;;;1.90;1.20;;;11.70;84.20;;;;;;5012186;28;20205;-71
2023/03/31 07:00:36;;;;;;;2.00;1.30;;;11.40;92.10;;;;;;5011989;28;20194;-76
2023/03/31 07:03:03;;;;;;;1.80;1.10;;;11.20;92.20;;;;;;5011476;28;21976;-68
2023/03/31 07:05:29;;;;;;;1.80;1.20;;;11.10;91.00;;;;;;5007826;28;20446;-68
2023/03/31 07:07:57;;;;;;;1.90;1.20;;;11.00;92.70;;;;;;5011572;28;20486;-69
2023/03/31 07:10:25;;;;;;;1.70;1.10;;;11.10;91.20;;;;;;5012540;28;20464;-67
2023/03/31 07:12:50;;;;;;;1.90;1.20;;;11.20;89.70;;;;;;5018132;28;20436;-72
2023/03/31 07:15:16;;;;;;;1.90;1.20;;;11.50;84.80;;;;;;5008341;28;20448;-71
2023/03/31 07:17:42;;;;;;;2.20;1.50;;;11.70;81.70;;;;;;5006889;28;20210;-65
2023/03/31 07:20:15;;;;;;;1.70;1.10;;;12.00;83.60;;;;;;5012941;28;20185;-66
2023/03/31 07:22:41;;;;;;;2.20;1.50;;;11.80;77.10;;;;;;5012391;28;20177;-68
2023/03/31 07:25:09;;;;;;;1.90;1.23;;;11.60;81.20;;;;;;5010500;28;20483;-67
2023/03/31 07:27:35;;;;;;;1.80;1.10;;;11.90;75.60;;;;;;5011574;28;20475;-70
2023/03/31 07:30:02;;;;;;;1.90;1.30;;;11.90;75.80;;;;;;5011227;28;20503;-69
2023/03/31 07:32:27;;;;;;;1.80;1.10;;;12.20;73.50;;;;;;5010363;28;20782;-67
2023/03/31 07:34:53;;;;;;;1.80;1.20;;;12.30;70.20;;;;;;5010894;28;20495;-68
2023/03/31 07:37:19;;;;;;;1.80;1.20;;;12.70;70.60;;;;;;5007832;28;20218;-70
2023/03/31 07:39:44;;;;;;;1.73;1.17;;;12.90;68.30;;;;;;5011791;28;20208;-67
2023/03/31 07:42:10;;;;;;;2.30;1.30;;;13.40;66.50;;;;;;5012015;28;20183;-67
2023/03/31 07:44:36;;;;;;;1.80;1.20;;;13.40;60.40;;;;;;4993537;28;20204;-67
2023/03/31 07:47:04;;;;;;;1.80;1.20;;;13.20;61.60;;;;;;5007202;28;20222;-67
2023/03/31 07:49:31;;;;;;;1.80;1.10;;;13.60;60.90;;;;;;5010412;28;20453;-67
2023/03/31 07:51:56;;;;;;;1.80;1.20;;;13.30;57.30;;;;;;5011697;28;20412;-67
2023/03/31 07:54:22;;;;;;;1.70;1.10;;;13.20;58.20;;;;;;5011078;28;20999;-67
2023/03/31 07:56:48;;;;;;;1.80;1.20;;;13.00;59.00;;;;;;5008502;28;20197;-67
2023/03/31 07:59:13;;;;;;;2.00;1.30;;;13.40;60.20;;;;;;5007045;28;20195;-70
2023/03/31 08:01:39;;;;;;;1.80;1.17;;;13.50;59.80;;;;;;5009762;28;20226;-66
2023/03/31 08:04:05;;;;;;;1.70;1.10;;;13.60;54.80;;;;;;5010024;28;20193;-66
2023/03/31 08:06:32;;;;;;;1.80;1.20;;;13.40;54.60;;;;;;5007618;28;20555;-66
2023/03/31 08:08:58;;;;;;;1.77;1.20;;;13.50;54.70;;;;;;4993119;28;20278;-67
2023/03/31 08:11:24;;;;;;;1.80;1.10;;;13.50;52.80;;;;;;5011715;28;20978;-69
2023/03/31 08:13:51;;;;;;;1.70;1.10;;;13.60;52.80;;;;;;5011312;28;20413;-66
2023/03/31 08:16:16;;;;;;;1.70;1.10;;;13.50;54.10;;;;;;5010815;28;20404;-67
2023/03/31 08:18:42;;;;;;;1.70;1.10;;;13.70;52.00;;;;;;5007545;28;20499;-73
2023/03/31 08:21:11;;;;;;;1.80;1.20;;;13.90;51.80;;;;;;5011322;28;20546;-69
2023/03/31 08:23:36;;;;;;;1.70;1.10;;;14.20;50.80;;;;;;5006143;28;20425;-66
2023/03/31 08:26:14;;;;;;;1.70;1.10;;;13.60;52.40;;;;;;5010988;28;20964;-69
2023/03/31 08:28:39;;;;;;;1.70;1.10;;;13.70;52.80;;;;;;5010477;28;20658;-66
2023/03/31 08:31:07;;;;;;;1.80;1.20;;;13.90;52.20;;;;;;5011364;28;20505;-68
2023/03/31 08:33:33;;;;;;;1.80;1.30;;;14.00;52.30;;;;;;5011159;28;20167;-67
2023/03/31 08:36:09;;;;;;;1.80;1.20;;;14.10;47.70;;;;;;5006727;28;20435;-67
2023/03/31 08:38:40;;;;;;;1.80;1.20;;;13.70;49.10;;;;;;5011786;28;20843;-69
2023/03/31 08:41:11;;;;;;;1.80;1.20;;;13.80;48.90;;;;;;5003337;28;20438;-67
2023/03/31 08:43:41;;;;;;;1.70;1.10;;;13.60;47.70;;;;;;5008620;28;20412;-72
2023/03/31 08:46:12;;;;;;;1.87;1.30;;;13.80;46.30;;;;;;5006254;28;20527;-67
2023/03/31 08:48:47;;;;;;;1.90;1.30;;;13.90;45.90;;;;;;5010635;28;20432;-67
2023/03/31 08:51:23;;;;;;;1.87;1.30;;;14.20;44.40;;;;;;5011382;28;20475;-68
2023/03/31 08:54:01;;;;;;;1.70;1.10;;;14.10;46.10;;;;;;5010920;28;20881;-67
2023/03/31 08:56:29;;;;;;;1.70;1.10;;;14.70;46.70;;;;;;5009940;28;21021;-68
2023/03/31 08:59:00;;;;;;;1.80;1.20;;;14.70;47.10;;;;;;5132523;22;21066;-68
2023/03/31 09:01:45;;;;;;;1.90;1.30;;;15.30;45.30;;;;;;4995081;28;20469;-69
2023/03/31 09:05:10;;;;;;;2.40;1.40;;;15.40;42.30;;;;;;4994060;28;20935;-70
2023/03/31 09:08:17;;;;;;;1.80;1.20;;;15.00;43.30;;;;;;4970258;28;20548;-70
2023/03/31 09:10:55;;;;;;;1.97;1.37;;;14.80;46.30;;;;;;4944892;29;20463;-70
2023/03/31 09:13:35;;;;;;;1.93;1.30;;;14.90;42.70;;;;;;4956015;29;20554;-70
2023/03/31 09:16:29;;;;;;;1.90;1.30;;;15.20;39.60;;;;;;4956263;29;20443;-70
2023/03/31 09:18:59;;;;;;;2.00;1.30;;;15.10;39.90;;;;;;4953839;29;20472;-69
2023/03/31 09:21:30;;;;;;;1.80;1.20;;;15.00;38.20;;;;;;4952930;28;20936;-70
2023/03/31 09:24:00;;;;;;;2.00;1.20;;;14.30;39.30;;;;;;4960901;28;20427;-70
2023/03/31 09:26:31;;;;;;;1.90;1.20;;;14.00;38.80;;;;;;4957912;28;20566;-70
2023/03/31 09:28:59;;;;;;;2.00;1.40;;;14.10;41.40;;;;;;4955380;28;20535;-68
2023/03/31 09:31:26;;;;;;;1.90;1.10;;;14.30;37.90;;;;;;4954036;28;20501;-72
2023/03/31 09:33:56;;;;;;;1.90;1.20;;;14.40;37.70;;;;;;4962963;28;21040;-71
2023/03/31 09:36:22;;;;;;;1.90;1.30;;;14.30;37.50;;;;;;4956205;28;20416;-71
2023/03/31 09:38:49;;;;;;;1.80;1.20;;;14.60;37.40;;;;;;4979959;28;20980;-71
2023/03/31 09:41:17;;;;;;;1.80;1.20;;;14.80;38.40;;;;;;4976302;28;20257;-71
2023/03/31 09:43:45;;;;;;;1.90;1.20;;;15.30;37.30;;;;;;4975447;28;20463;-71
2023/03/31 09:46:33;;;;;;;1.80;1.10;;;15.50;36.80;;;;;;4975771;28;20511;-69
2023/03/31 09:49:16;;;;;;;5.80;1.70;;;15.40;35.60;;;;;;4956674;28;20433;-71
2023/03/31 09:51:47;;;;;;;1.90;1.20;;;15.60;34.40;;;;;;4957143;29;20415;-69
2023/03/31 09:54:22;;;;;;;2.03;1.40;;;15.40;36.30;;;;;;4960966;28;20436;-71
2023/03/31 09:56:52;;;;;;;1.97;1.20;;;15.70;35.90;;;;;;4974160;28;20530;-71
2023/03/31 09:59:28;;;;;;;1.97;1.20;;;15.80;34.40;;;;;;4974669;28;20977;-71
2023/03/31 10:01:58;;;;;;;1.90;1.20;;;15.70;33.30;;;;;;4977096;28;20440;-71
2023/03/31 10:04:27;;;;;;;2.10;1.30;;;16.00;33.80;;;;;;4987374;28;20456;-69
2023/03/31 10:06:54;;;;;;;2.10;1.10;;;16.20;33.70;;;;;;4975151;28;20434;-69
2023/03/31 10:09:25;;;;;;;2.07;1.20;;;16.50;30.70;;;;;;4981172;28;20474;-71
2023/03/31 10:12:03;;;;;;;2.03;1.10;;;16.70;30.60;;;;;;4983677;28;20424;-71
2023/03/31 10:14:49;;;;;;;2.47;1.40;;;17.00;30.40;;;;;;4979931;28;21182;-72
2023/03/31 10:17:21;;;;;;;2.40;1.30;;;17.20;29.90;;;;;;4975396;28;20566;-69
2023/03/31 10:19:58;;;;;;;2.30;1.10;;;17.30;31.00;;;;;;4970278;28;20553;-71
2023/03/31 10:22:29;;;;;;;2.60;1.33;;;17.30;29.00;;;;;;4976832;28;20455;-70
2023/03/31 10:25:14;;;;;;;2.40;1.10;;;17.10;28.00;;;;;;4977439;28;20428;-71
2023/03/31 10:27:42;;;;;;;2.67;1.30;;;16.70;29.50;;;;;;4974497;28;20464;-70
2023/03/31 10:30:11;;;;;;;3.60;1.60;;;16.80;28.30;;;;;;4976732;28;20464;-69
2023/03/31 10:32:43;;;;;;;2.40;1.20;;;16.90;28.00;;;;;;4977345;28;20480;-70
2023/03/31 10:35:23;;;;;;;2.60;1.23;;;16.70;27.20;;;;;;4976395;28;20924;-70
2023/03/31 10:37:53;;;;;;;2.70;1.20;;;16.70;26.50;;;;;;4975607;28;20798;-70
2023/03/31 10:40:22;;;;;;;2.70;1.20;;;17.20;27.90;;;;;;4975688;28;20478;-70
2023/03/31 10:43:19;;;;;;;2.90;1.20;;;17.80;24.90;;;;;;4975640;28;20923;-68
2023/03/31 10:45:50;;;;;;;2.90;1.40;;;17.20;24.80;;;;;;4976833;28;20412;-70
2023/03/31 10:48:28;;;;;;;2.73;1.30;;;16.60;25.90;;;;;;4974713;28;20806;-68
2023/03/31 10:50:59;;;;;;;2.70;1.30;;;16.80;26.00;;;;;;4969746;28;20448;-70
2023/03/31 10:53:24;;;;;;;2.80;1.30;;;16.70;26.70;;;;;;4976564;28;20424;-70
2023/03/31 10:56:11;;;;;;;2.87;1.30;;;17.20;26.20;;;;;;4975842;28;20410;-68
2023/03/31 10:59:02;;;;;;;6.13;1.87;;;18.00;25.20;;;;;;4974118;28;20205;-70
2023/03/31 11:01:56;;;;;;;3.00;1.30;;;17.90;24.70;;;;;;4976269;28;20453;-70
2023/03/31 11:04:37;;;;;;;3.10;1.20;;;17.70;24.30;;;;;;4977068;28;20464;-70
2023/03/31 11:07:17;;;;;;;3.00;1.20;;;18.00;24.60;;;;;;4976384;28;20436;-69
2023/03/31 11:09:50;;;;;;;3.30;1.30;;;18.20;24.70;;;;;;4973243;28;20466;-70
2023/03/31 11:12:37;;;;;;;3.10;1.20;;;19.40;21.60;;;;;;4974877;28;20799;-69
2023/03/31 11:15:32;;;;;;;3.10;1.20;;;19.30;21.80;;;;;;4975722;28;20401;-70
2023/03/31 11:18:12;;;;;;;3.20;1.27;;;18.70;22.20;;;;;;4976556;28;20413;-71
2023/03/31 11:21:04;;;;;;;3.10;1.20;;;17.60;22.70;;;;;;4974266;28;20426;-71
2023/03/31 11:23:57;;;;;;;3.10;1.20;;;16.70;23.60;;;;;;4974860;28;20517;-70
2023/03/31 11:26:45;;;;;;;4.10;1.50;;;16.30;25.30;;;;;;4981783;28;20989;-69
2023/03/31 11:29:39;;;;;;;2.20;1.20;;;13.60;45.50;;;;;;4979908;28;20462;-70
2023/03/31 11:32:37;;;;;;;2.10;1.30;;;10.30;82.20;;;;;;4973913;28;20449;-69
2023/03/31 11:35:14;;;;;;;2.63;1.50;;;9.30;82.20;;;;;;4965342;28;20528;-69
2023/03/31 11:37:46;;;;;;;2.10;1.30;;;9.20;85.90;;;;;;4986007;28;20425;-70
2023/03/31 11:40:50;;;;;;;2.40;1.50;;;9.50;89.10;;;;;;4981849;28;20529;-68
2023/03/31 11:43:46;;;;;;;2.00;1.10;;;9.50;87.00;;;;;;4966291;28;20524;-69
2023/03/31 11:46:26;;;;;;;2.00;1.20;;;9.40;87.80;;;;;;4980967;28;20434;-68
2023/03/31 11:49:00;;;;;;;5.50;2.33;;;9.30;81.90;;;;;;4975030;28;20988;-69
2023/03/31 11:51:28;;;;;;;2.10;1.20;;;9.30;87.50;;;;;;4984388;28;20449;-69
2023/03/31 11:53:57;;;;;;;2.07;1.27;;;9.40;82.00;;;;;;4988204;28;20869;-69
2023/03/31 11:56:28;;;;;;;2.10;1.30;;;9.40;81.50;;;;;;4986864;28;20840;-71
2023/03/31 11:58:58;;;;;;;2.00;1.13;;;9.70;81.10;;;;;;4972073;28;20473;-69
2023/03/31 12:01:42;;;;;;;2.00;1.20;;;10.30;77.50;;;;;;4970525;28;20799;-71
2023/03/31 12:04:17;;;;;;;2.00;1.30;;;11.00;76.70;;;;;;4970032;28;20483;-70
2023/03/31 12:06:45;;;;;;;2.00;1.20;;;11.80;59.30;;;;;;4973545;28;20421;-69
2023/03/31 12:10:04;;;;;;;2.00;1.30;;;12.20;55.20;;;;;;4974046;28;20960;-69
2023/03/31 12:12:36;;;;;;;1.87;1.10;;;12.50;52.90;;;;;;4980141;28;20438;-71
2023/03/31 12:15:04;;;;;;;1.93;1.30;;;11.90;56.60;;;;;;4972563;28;20442;-70
2023/03/31 12:17:31;;;;;;;1.90;1.13;;;11.60;51.60;;;;;;4973889;28;20454;-71
2023/03/31 12:20:10;;;;;;;2.00;1.20;;;11.30;56.70;;;;;;4980626;28;20450;-70
2023/03/31 12:22:43;;;;;;;1.93;1.20;;;11.00;57.80;;;;;;4986019;28;20430;-72
2023/03/31 12:25:25;;;;;;;2.10;1.40;;;10.80;56.90;;;;;;4972934;28;20429;-68
2023/03/31 12:27:53;;;;;;;2.00;1.27;;;11.00;54.50;;;;;;4973201;28;20850;-67
2023/03/31 12:30:28;;;;;;;1.90;1.20;;;11.90;57.20;;;;;;4984758;28;20464;-66
2023/03/31 12:33:10;;;;;;;2.20;1.23;;;12.50;54.40;;;;;;4978951;28;20446;-68
2023/03/31 12:36:02;;;;;;;1.83;1.17;;;13.60;46.90;;;;;;4975301;28;20434;-69
2023/03/31 12:38:33;;;;;;;2.00;1.30;;;14.50;45.30;;;;;;4980689;28;20457;-69
2023/03/31 12:41:07;;;;;;;2.00;1.30;;;15.60;43.40;;;;;;4982363;28;20791;-69
2023/03/31 12:43:52;;;;;;;1.80;1.10;;;17.10;38.50;;;;;;4974561;28;20438;-72
2023/03/31 12:46:55;;;;;;;2.10;1.30;;;18.30;34.50;;;;;;4988948;28;20404;-69
2023/03/31 12:49:31;;;;;;;2.30;1.20;;;19.30;29.90;;;;;;4976866;28;20508;-70
2023/03/31 12:52:07;;;;;;;2.70;1.30;;;19.60;29.90;;;;;;4976453;28;21075;-69
2023/03/31 12:54:33;;;;;;;2.93;1.30;;;19.70;30.20;;;;;;4976269;28;20847;-69
2023/03/31 12:57:15;;;;;;;2.80;1.20;;;19.60;27.50;;;;;;4976859;28;20443;-69
2023/03/31 12:59:42;;;;;;;3.00;1.30;;;18.80;30.20;;;;;;4974869;28;20224;-69
2023/03/31 13:02:08;;;;;;;3.50;1.50;;;19.60;28.50;;;;;;4975403;28;20452;-69
2023/03/31 13:04:37;;;;;;;3.80;1.40;;;20.70;26.50;;;;;;4976204;28;20424;-68
2023/03/31 13:07:11;;;;;;;3.53;1.50;;;21.00;26.40;;;;;;4976685;28;20176;-69
2023/03/31 13:09:45;;;;;;;3.10;1.20;;;20.90;26.20;;;;;;4975996;28;20481;-70
2023/03/31 13:12:20;;;;;;;3.63;1.53;;;22.20;27.20;;;;;;4975886;28;20477;-70
2023/03/31 13:14:50;;;;;;;3.30;1.30;;;19.70;27.40;;;;;;4966162;28;20444;-70
2023/03/31 13:17:29;;;;;;;3.30;1.30;;;19.80;28.30;;;;;;4983350;28;20452;-68